Breves, Brazil
Current Conditions -  °F | °C
As of 4:00 PM on Saturday 25 Oct 2014 (Local Time) from SBMQ Reporting Station
Few Clouds Few Clouds  
Wind Chill: 93°   Ceiling: Unl
Heat Index: 103°   Visibility: 6mi
Dew Point: 73°   Wind: 15mph
Humidity: 52%   Direction: 60°ENE
Pressure: 29.74"   Gusts: NA
Location:  1.68°S, 50.48°W
Report Text: SBMQ 251900Z 06013KT 9999 FEW030 FEW033TCU 34/23 Q1007
Loading
Personal Weather Stations






























Interactive Weather Map
Tropical Storm Tracking
New forecast layout! Learn more

10-Day Weather Forecast

Advertisements
Track Severe Weather on mobile